Time;durP1;ratioP1;P1;durP2;ratioP2;P2;SDS_P1;SDS_P2;PMS_P1;PMS_P2;Temp;Humidity;BMP_temperature;BMP_pressure;BME280_temperature;BME280_humidity;BME280_pressure;Samples;Min_cycle;Max_cycle;Signal;HPM_P1;HPM_P2
2023/06/10 00:01:57;;;;;;;13.65;8.00;;;;;;;;;;5023516;28;20102;-53
2023/06/10 00:04:23;;;;;;;14.18;7.55;;;;;;;;;;5023703;28;20477;-53
2023/06/10 00:06:50;;;;;;;11.73;8.20;;;;;;;;;;5023361;28;20477;-52
2023/06/10 00:09:15;;;;;;;10.85;8.10;;;;;;;;;;5023350;28;20393;-55
2023/06/10 00:11:41;;;;;;;9.00;7.40;;;;;;;;;;5023265;28;20021;-51
2023/06/10 00:14:07;;;;;;;14.18;7.50;;;;;;;;;;5023361;28;20439;-53
2023/06/10 00:16:33;;;;;;;13.68;7.55;;;;;;;;;;5037346;28;20026;-51
2023/06/10 00:19:02;;;;;;;17.15;7.43;;;;;;;;;;5023060;28;20013;-57
2023/06/10 00:21:28;;;;;;;9.15;6.90;;;;;;;;;;5023031;28;20040;-57
2023/06/10 00:23:55;;;;;;;9.68;6.85;;;;;;;;;;5022610;28;20541;-51
2023/06/10 00:26:20;;;;;;;15.30;7.50;;;;;;;;;;5022722;28;20029;-53
2023/06/10 00:28:45;;;;;;;11.15;7.90;;;;;;;;;;5023094;28;20036;-54
2023/06/10 00:31:11;;;;;;;15.07;8.75;;;;;;;;;;5022941;28;20555;-50
2023/06/10 00:33:36;;;;;;;13.13;8.63;;;;;;;;;;5023009;28;20021;-55
2023/06/10 00:36:01;;;;;;;13.57;7.95;;;;;;;;;;5036886;28;20841;-49
2023/06/10 00:38:26;;;;;;;19.27;9.32;;;;;;;;;;5022850;28;20489;-53
2023/06/10 00:40:52;;;;;;;15.40;8.65;;;;;;;;;;5023269;28;20108;-55
2023/06/10 00:43:17;;;;;;;17.20;9.27;;;;;;;;;;5020390;28;20385;-54
2023/06/10 00:45:42;;;;;;;11.40;7.97;;;;;;;;;;5023055;28;20022;-55
2023/06/10 00:48:08;;;;;;;13.27;8.60;;;;;;;;;;5022750;28;20043;-50
2023/06/10 00:50:34;;;;;;;13.43;8.98;;;;;;;;;;5022782;28;20036;-52
2023/06/10 00:53:00;;;;;;;14.65;8.80;;;;;;;;;;5022561;28;20025;-53
2023/06/10 00:55:27;;;;;;;12.95;8.80;;;;;;;;;;5022437;28;20028;-55
2023/06/10 00:57:53;;;;;;;15.25;7.90;;;;;;;;;;5022449;28;20049;-52
2023/06/10 01:00:18;;;;;;;19.15;8.60;;;;;;;;;;5022508;28;20029;-55
2023/06/10 01:02:44;;;;;;;16.75;8.77;;;;;;;;;;5022593;28;20028;-56
2023/06/10 01:05:09;;;;;;;15.57;8.88;;;;;;;;;;5022695;28;20113;-51
2023/06/10 01:07:39;;;;;;;19.38;9.20;;;;;;;;;;5022746;28;20121;-53
2023/06/10 01:10:09;;;;;;;18.50;8.77;;;;;;;;;;5022226;28;20096;-52
2023/06/10 01:12:50;;;;;;;17.35;9.40;;;;;;;;;;5020954;28;20030;-49
2023/06/10 01:15:16;;;;;;;17.20;8.55;;;;;;;;;;5022373;28;20504;-57
2023/06/10 01:18:01;;;;;;;13.13;8.85;;;;;;;;;;5021945;28;20036;-52
2023/06/10 01:20:27;;;;;;;14.90;8.18;;;;;;;;;;5021600;28;20037;-54
2023/06/10 01:22:54;;;;;;;22.95;9.05;;;;;;;;;;5021885;28;20017;-56
2023/06/10 01:25:27;;;;;;;22.23;9.40;;;;;;;;;;5022049;28;20056;-53
2023/06/10 01:27:53;;;;;;;14.75;9.70;;;;;;;;;;5019271;28;20112;-53
2023/06/10 01:30:23;;;;;;;20.17;10.18;;;;;;;;;;5022005;28;20025;-50
2023/06/10 01:32:50;;;;;;;15.35;10.60;;;;;;;;;;5021906;28;20033;-55
2023/06/10 01:35:15;;;;;;;18.35;9.60;;;;;;;;;;5021915;28;20360;-57
2023/06/10 01:37:42;;;;;;;19.27;9.93;;;;;;;;;;5022053;28;20603;-52
2023/06/10 01:40:09;;;;;;;13.25;8.48;;;;;;;;;;5022097;28;20031;-57
2023/06/10 01:42:34;;;;;;;31.00;9.82;;;;;;;;;;5021944;28;20033;-56
2023/06/10 01:45:00;;;;;;;29.98;9.35;;;;;;;;;;5022129;28;20398;-50
2023/06/10 01:47:25;;;;;;;24.88;9.68;;;;;;;;;;5020472;28;20025;-53
2023/06/10 01:49:50;;;;;;;28.85;9.90;;;;;;;;;;5022147;28;20036;-56
2023/06/10 01:52:16;;;;;;;32.15;10.75;;;;;;;;;;5021650;28;20163;-53
2023/06/10 01:54:41;;;;;;;28.92;10.82;;;;;;;;;;5021776;28;20370;-53
2023/06/10 01:57:07;;;;;;;31.83;10.85;;;;;;;;;;5021399;28;20028;-55
2023/06/10 01:59:32;;;;;;;27.10;10.60;;;;;;;;;;5021657;28;20104;-55
2023/06/10 02:01:57;;;;;;;30.02;10.93;;;;;;;;;;5021551;28;20172;-51
2023/06/10 02:04:23;;;;;;;29.52;11.95;;;;;;;;;;5021813;28;20021;-53
2023/06/10 02:06:48;;;;;;;30.33;10.52;;;;;;;;;;5021892;28;20340;-56
2023/06/10 02:09:13;;;;;;;25.23;10.27;;;;;;;;;;5021560;28;20071;-49
2023/06/10 02:11:39;;;;;;;25.20;10.10;;;;;;;;;;5021490;28;20270;-57
2023/06/10 02:14:04;;;;;;;17.10;9.15;;;;;;;;;;5021384;28;20466;-53
2023/06/10 02:16:30;;;;;;;25.98;9.82;;;;;;;;;;5038343;28;20483;-50
2023/06/10 02:18:56;;;;;;;19.90;10.23;;;;;;;;;;5038492;28;20175;-54
2023/06/10 02:21:21;;;;;;;20.17;10.98;;;;;;;;;;5038603;28;20033;-55
2023/06/10 02:23:46;;;;;;;20.88;9.30;;;;;;;;;;5038112;28;20056;-53
2023/06/10 02:26:12;;;;;;;14.30;9.65;;;;;;;;;;5038282;28;20445;-54
2023/06/10 02:28:37;;;;;;;18.77;8.68;;;;;;;;;;5038274;28;20028;-50
2023/06/10 02:31:02;;;;;;;18.23;7.97;;;;;;;;;;5040850;28;20036;-55
2023/06/10 02:33:28;;;;;;;19.98;7.85;;;;;;;;;;5042232;28;20025;-56
2023/06/10 02:35:53;;;;;;;16.50;7.25;;;;;;;;;;5041865;28;20416;-55
2023/06/10 02:38:19;;;;;;;18.58;7.35;;;;;;;;;;5042151;28;21108;-57
2023/06/10 02:40:44;;;;;;;21.38;7.32;;;;;;;;;;5041941;28;20464;-50
2023/06/10 02:43:10;;;;;;;20.05;7.45;;;;;;;;;;5041920;28;20025;-54
2023/06/10 02:45:35;;;;;;;14.43;7.25;;;;;;;;;;5042063;28;20571;-52
2023/06/10 02:48:00;;;;;;;14.88;6.65;;;;;;;;;;5030059;28;20041;-50
2023/06/10 02:50:25;;;;;;;10.73;6.10;;;;;;;;;;5024960;28;20029;-54
2023/06/10 02:52:51;;;;;;;11.35;6.28;;;;;;;;;;5025012;28;20465;-50
2023/06/10 02:55:16;;;;;;;10.77;5.97;;;;;;;;;;5024344;28;20533;-56
2023/06/10 02:57:41;;;;;;;14.83;5.83;;;;;;;;;;5024655;28;20456;-51
2023/06/10 03:00:10;;;;;;;10.32;5.90;;;;;;;;;;5025042;28;20334;-55
2023/06/10 03:02:38;;;;;;;13.68;6.78;;;;;;;;;;5024948;28;20552;-56
2023/06/10 03:05:04;;;;;;;17.02;5.88;;;;;;;;;;5025076;28;20072;-52
2023/06/10 03:07:30;;;;;;;8.38;5.97;;;;;;;;;;5024592;28;20029;-52
2023/06/10 03:09:55;;;;;;;14.50;6.25;;;;;;;;;;5025006;28;20101;-55
2023/06/10 03:12:20;;;;;;;10.23;6.27;;;;;;;;;;5024361;28;20124;-49
2023/06/10 03:14:45;;;;;;;23.10;6.45;;;;;;;;;;5025021;28;20255;-56
2023/06/10 03:17:11;;;;;;;13.77;6.03;;;;;;;;;;5024609;28;20025;-50
2023/06/10 03:19:37;;;;;;;11.27;5.90;;;;;;;;;;5024525;28;20109;-55
2023/06/10 03:22:09;;;;;;;13.13;5.88;;;;;;;;;;5024513;28;20480;-54
2023/06/10 03:24:35;;;;;;;9.65;5.38;;;;;;;;;;5024074;28;20517;-51
2023/06/10 03:27:01;;;;;;;11.18;6.40;;;;;;;;;;5024414;28;20036;-55
2023/06/10 03:29:27;;;;;;;13.05;6.47;;;;;;;;;;5024038;28;20021;-55
2023/06/10 03:31:52;;;;;;;13.27;6.30;;;;;;;;;;5024286;28;20044;-55
2023/06/10 03:34:17;;;;;;;14.97;6.13;;;;;;;;;;5024387;28;20516;-52
2023/06/10 03:36:43;;;;;;;13.75;5.97;;;;;;;;;;5024063;28;20304;-55
2023/06/10 03:39:09;;;;;;;9.45;6.35;;;;;;;;;;5024317;28;20021;-54
2023/06/10 03:41:34;;;;;;;11.85;6.47;;;;;;;;;;5023432;28;20036;-53
2023/06/10 03:44:00;;;;;;;14.13;6.50;;;;;;;;;;5023872;28;20017;-51
2023/06/10 03:46:25;;;;;;;9.43;7.10;;;;;;;;;;5024175;28;20025;-54
2023/06/10 03:48:51;;;;;;;14.35;7.07;;;;;;;;;;5024033;28;20485;-56
2023/06/10 03:51:16;;;;;;;12.80;7.15;;;;;;;;;;5023946;28;20116;-55
2023/06/10 03:53:41;;;;;;;16.23;6.60;;;;;;;;;;5024025;28;20394;-53
2023/06/10 03:56:07;;;;;;;8.43;5.78;;;;;;;;;;5023732;28;20090;-56
2023/06/10 03:58:32;;;;;;;13.23;6.77;;;;;;;;;;5023652;28;20489;-52
2023/06/10 04:00:57;;;;;;;14.05;7.45;;;;;;;;;;5023871;28;20309;-54
2023/06/10 04:03:23;;;;;;;14.60;6.55;;;;;;;;;;5023913;28;20488;-55
2023/06/10 04:05:50;;;;;;;11.20;6.85;;;;;;;;;;5023836;28;20029;-49
2023/06/10 04:08:15;;;;;;;15.15;6.80;;;;;;;;;;5023613;28;20374;-51
2023/06/10 04:10:40;;;;;;;9.45;6.75;;;;;;;;;;5024158;28;20033;-51
2023/06/10 04:13:05;;;;;;;13.43;6.38;;;;;;;;;;5023410;28;20025;-56
2023/06/10 04:15:33;;;;;;;9.83;6.37;;;;;;;;;;5023379;28;20395;-51
2023/06/10 04:17:58;;;;;;;11.15;7.05;;;;;;;;;;5023903;28;20669;-56
2023/06/10 04:20:23;;;;;;;10.82;7.30;;;;;;;;;;5020837;28;20033;-51
2023/06/10 04:22:48;;;;;;;18.45;7.53;;;;;;;;;;5023359;28;20053;-56
2023/06/10 04:25:14;;;;;;;14.93;6.53;;;;;;;;;;5023185;28;20026;-50
2023/06/10 04:27:39;;;;;;;10.27;5.97;;;;;;;;;;5004222;28;20397;-49
2023/06/10 04:30:05;;;;;;;12.80;6.25;;;;;;;;;;5023147;28;20064;-57
2023/06/10 04:32:30;;;;;;;10.55;6.38;;;;;;;;;;5020847;28;20037;-48
2023/06/10 04:34:56;;;;;;;9.18;5.75;;;;;;;;;;5022899;28;20021;-55
2023/06/10 04:37:21;;;;;;;9.20;6.50;;;;;;;;;;5021937;28;20017;-55
2023/06/10 04:39:46;;;;;;;13.93;6.40;;;;;;;;;;5023203;28;20410;-53
2023/06/10 04:42:12;;;;;;;11.98;6.25;;;;;;;;;;5023260;28;20055;-56
2023/06/10 04:44:37;;;;;;;9.77;6.30;;;;;;;;;;5023310;28;20480;-56
2023/06/10 04:47:02;;;;;;;8.82;5.50;;;;;;;;;;5023412;28;20245;-48
2023/06/10 04:49:29;;;;;;;30.08;10.15;;;;;;;;;;5023500;28;20034;-55
2023/06/10 04:51:54;;;;;;;9.63;7.03;;;;;;;;;;5022873;28;20374;-57
2023/06/10 04:54:20;;;;;;;12.85;6.97;;;;;;;;;;5022190;28;20031;-52
2023/06/10 04:56:45;;;;;;;9.20;6.63;;;;;;;;;;5022646;28;20088;-55
2023/06/10 04:59:10;;;;;;;12.70;6.38;;;;;;;;;;5023055;28;20087;-53
2023/06/10 05:01:35;;;;;;;18.77;7.80;;;;;;;;;;5022481;28;20400;-57
2023/06/10 05:04:01;;;;;;;13.53;7.70;;;;;;;;;;5022975;28;20432;-51
2023/06/10 05:06:26;;;;;;;18.58;7.95;;;;;;;;;;5020083;28;20293;-56
2023/06/10 05:08:51;;;;;;;14.88;7.53;;;;;;;;;;5023158;28;20025;-53
2023/06/10 05:11:17;;;;;;;15.30;8.33;;;;;;;;;;5022300;28;20117;-57
2023/06/10 05:13:43;;;;;;;12.50;8.18;;;;;;;;;;5022664;28;20247;-52
2023/06/10 05:16:09;;;;;;;14.40;7.93;;;;;;;;;;5022207;28;20022;-56
2023/06/10 05:18:35;;;;;;;18.90;8.15;;;;;;;;;;5021447;28;20078;-55
2023/06/10 05:21:00;;;;;;;11.25;6.95;;;;;;;;;;5022772;28;20052;-48
2023/06/10 05:23:26;;;;;;;11.90;7.78;;;;;;;;;;5022165;28;20139;-57
2023/06/10 05:25:51;;;;;;;8.80;6.30;;;;;;;;;;5022341;28;20033;-52
2023/06/10 05:28:16;;;;;;;10.88;7.50;;;;;;;;;;5022359;28;20243;-51
2023/06/10 05:30:41;;;;;;;8.50;6.47;;;;;;;;;;5022233;28;20445;-55
2023/06/10 05:33:07;;;;;;;8.47;6.50;;;;;;;;;;5022334;28;20131;-55
2023/06/10 05:35:32;;;;;;;8.43;6.13;;;;;;;;;;5022563;28;20254;-57
2023/06/10 05:37:57;;;;;;;12.70;6.90;;;;;;;;;;5022238;28;20524;-55
2023/06/10 05:40:23;;;;;;;11.07;6.45;;;;;;;;;;5022700;28;20079;-58
2023/06/10 05:42:48;;;;;;;7.60;6.68;;;;;;;;;;5022710;28;20029;-58
2023/06/10 05:45:13;;;;;;;10.00;6.18;;;;;;;;;;5022343;28;20018;-55
2023/06/10 05:47:40;;;;;;;9.93;7.18;;;;;;;;;;5022332;28;20036;-56
2023/06/10 05:50:09;;;;;;;9.88;7.53;;;;;;;;;;5022542;28;20076;-51
2023/06/10 05:52:34;;;;;;;;;;;;;;;;;;5023112;28;20037;-50
2023/06/10 05:54:59;;;;;;;9.23;7.10;;;;;;;;;;5022646;28;19912;-57
2023/06/10 05:57:25;;;;;;;9.85;7.18;;;;;;;;;;5022398;28;20760;-55
2023/06/10 05:59:50;;;;;;;12.98;6.57;;;;;;;;;;5022546;28;20018;-54
2023/06/10 06:02:15;;;;;;;12.05;7.20;;;;;;;;;;5022683;28;20037;-49
2023/06/10 06:04:41;;;;;;;9.02;5.72;;;;;;;;;;5023177;28;20025;-57
2023/06/10 06:07:06;;;;;;;9.37;6.53;;;;;;;;;;5026991;28;20029;-50
2023/06/10 06:09:31;;;;;;;8.88;6.13;;;;;;;;;;5027780;28;20730;-48
2023/06/10 06:11:56;;;;;;;7.38;6.15;;;;;;;;;;5026180;28;20363;-54
2023/06/10 06:14:22;;;;;;;8.25;6.55;;;;;;;;;;5026520;28;20476;-50
2023/06/10 06:16:47;;;;;;;8.70;5.75;;;;;;;;;;5026358;28;20021;-56
2023/06/10 06:19:12;;;;;;;7.83;5.90;;;;;;;;;;5026694;28;20445;-48
2023/06/10 06:21:38;;;;;;;5.95;4.85;;;;;;;;;;5026169;28;20821;-56
2023/06/10 06:24:03;;;;;;;5.47;3.83;;;;;;;;;;5026119;28;20061;-52
2023/06/10 06:26:28;;;;;;;8.13;5.00;;;;;;;;;;5026418;28;20037;-50
2023/06/10 06:28:53;;;;;;;8.13;5.27;;;;;;;;;;5026578;28;20057;-53
2023/06/10 06:31:19;;;;;;;10.00;5.90;;;;;;;;;;5025848;28;20275;-57
2023/06/10 06:33:44;;;;;;;7.65;5.45;;;;;;;;;;5026069;28;20800;-55
2023/06/10 06:36:09;;;;;;;12.35;5.70;;;;;;;;;;5025960;28;20014;-54
2023/06/10 06:38:35;;;;;;;9.10;5.82;;;;;;;;;;5026038;28;20025;-51
2023/06/10 06:41:02;;;;;;;7.30;5.73;;;;;;;;;;5025963;28;20547;-53
2023/06/10 06:43:28;;;;;;;9.10;5.90;;;;;;;;;;5025637;28;20341;-50
2023/06/10 06:45:53;;;;;;;7.35;5.53;;;;;;;;;;5025945;28;20121;-52
2023/06/10 06:48:19;;;;;;;8.50;5.63;;;;;;;;;;5025857;28;20061;-58
2023/06/10 06:50:44;;;;;;;7.18;5.97;;;;;;;;;;5025866;28;20267;-56
2023/06/10 06:53:09;;;;;;;8.07;5.43;;;;;;;;;;5025606;28;20448;-50
2023/06/10 06:55:34;;;;;;;7.10;5.53;;;;;;;;;;5025528;28;20110;-56
2023/06/10 06:58:02;;;;;;;5.75;5.13;;;;;;;;;;5025498;28;20330;-54
2023/06/10 07:00:27;;;;;;;8.65;5.60;;;;;;;;;;5026931;28;20025;-56
2023/06/10 07:02:53;;;;;;;9.43;6.60;;;;;;;;;;5025696;28;20033;-50
2023/06/10 07:05:18;;;;;;;7.63;5.97;;;;;;;;;;5025104;28;20539;-54
2023/06/10 07:07:44;;;;;;;10.38;7.00;;;;;;;;;;5025180;28;20243;-54
2023/06/10 07:10:09;;;;;;;9.13;6.57;;;;;;;;;;5025305;28;20033;-55
2023/06/10 07:12:34;;;;;;;8.85;6.68;;;;;;;;;;5022591;28;20467;-52
2023/06/10 07:15:00;;;;;;;8.43;7.03;;;;;;;;;;5025052;28;20036;-53
2023/06/10 07:17:26;;;;;;;9.75;7.53;;;;;;;;;;5022910;28;20429;-56
2023/06/10 07:19:52;;;;;;;11.30;8.40;;;;;;;;;;5024946;28;20490;-57
2023/06/10 07:22:17;;;;;;;10.47;8.00;;;;;;;;;;5025164;28;20021;-52
2023/06/10 07:24:42;;;;;;;9.10;7.75;;;;;;;;;;5025156;28;20337;-53
2023/06/10 07:27:08;;;;;;;9.05;6.43;;;;;;;;;;5024962;28;20028;-54
2023/06/10 07:29:35;;;;;;;8.35;7.05;;;;;;;;;;5025157;28;20036;-54
2023/06/10 07:32:00;;;;;;;7.72;6.70;;;;;;;;;;5024784;28;20120;-52
2023/06/10 07:34:26;;;;;;;9.13;7.00;;;;;;;;;;5025021;28;20133;-52
2023/06/10 07:36:51;;;;;;;7.20;6.37;;;;;;;;;;5024856;28;20018;-54
2023/06/10 07:39:16;;;;;;;7.18;6.47;;;;;;;;;;5022428;28;20397;-49
2023/06/10 07:41:42;;;;;;;8.47;7.47;;;;;;;;;;5024722;28;20567;-55
2023/06/10 07:44:07;;;;;;;7.97;6.70;;;;;;;;;;5025092;28;20242;-49
2023/06/10 07:46:32;;;;;;;9.00;6.80;;;;;;;;;;5024572;28;20246;-56
2023/06/10 07:48:57;;;;;;;16.40;7.43;;;;;;;;;;5025573;28;20340;-51
2023/06/10 07:51:23;;;;;;;6.28;5.50;;;;;;;;;;5024449;28;20025;-59
2023/06/10 07:53:48;;;;;;;9.15;6.43;;;;;;;;;;5024283;28;20563;-52
2023/06/10 07:56:13;;;;;;;8.20;6.38;;;;;;;;;;5024669;28;20021;-56
2023/06/10 07:58:39;;;;;;;6.57;5.13;;;;;;;;;;5024088;28;20362;-57
2023/06/10 08:01:04;;;;;;;8.98;5.93;;;;;;;;;;5024237;28;20251;-56
2023/06/10 08:03:30;;;;;;;8.60;6.10;;;;;;;;;;5024049;28;20025;-54
2023/06/10 08:05:55;;;;;;;11.03;5.10;;;;;;;;;;5024035;28;20083;-54
2023/06/10 08:08:20;;;;;;;7.40;5.07;;;;;;;;;;5023968;28;20269;-54
2023/06/10 08:10:46;;;;;;;5.20;4.60;;;;;;;;;;5023826;28;20369;-55
2023/06/10 08:13:11;;;;;;;6.67;5.33;;;;;;;;;;5024090;28;20310;-52
2023/06/10 08:15:36;;;;;;;6.83;4.80;;;;;;;;;;5023677;28;20247;-55
2023/06/10 08:18:01;;;;;;;5.07;4.57;;;;;;;;;;5024071;28;20642;-55
2023/06/10 08:20:27;;;;;;;6.93;4.33;;;;;;;;;;5023693;28;20239;-56
2023/06/10 08:22:52;;;;;;;4.18;3.47;;;;;;;;;;5023611;28;20439;-53
2023/06/10 08:25:17;;;;;;;5.82;4.47;;;;;;;;;;5023323;28;20457;-51
2023/06/10 08:27:43;;;;;;;6.13;5.15;;;;;;;;;;5023404;28;20033;-55
2023/06/10 08:30:10;;;;;;;7.33;6.13;;;;;;;;;;5023427;28;20021;-51
2023/06/10 08:32:35;;;;;;;7.13;5.55;;;;;;;;;;5023553;28;20750;-55
2023/06/10 08:35:00;;;;;;;6.80;6.10;;;;;;;;;;5024028;28;20025;-55
2023/06/10 08:37:27;;;;;;;9.07;6.18;;;;;;;;;;5023112;28;20052;-54
2023/06/10 08:39:52;;;;;;;6.33;5.67;;;;;;;;;;5023341;28;20022;-55
2023/06/10 08:42:35;;;;;;;7.83;6.53;;;;;;;;;;5022798;28;20120;-52
2023/06/10 08:45:01;;;;;;;7.25;6.38;;;;;;;;;;5023070;28;20056;-55
2023/06/10 08:47:29;;;;;;;6.38;5.35;;;;;;;;;;5023428;28;20022;-51
2023/06/10 08:49:56;;;;;;;7.50;5.47;;;;;;;;;;5022977;28;20762;-55
2023/06/10 08:52:21;;;;;;;5.90;4.47;;;;;;;;;;5022736;28;20034;-52
2023/06/10 08:55:02;;;;;;;5.65;5.05;;;;;;;;;;5022530;28;20154;-52
2023/06/10 08:57:28;;;;;;;7.55;6.05;;;;;;;;;;5022392;28;20439;-56
2023/06/10 08:59:54;;;;;;;7.18;6.10;;;;;;;;;;5020310;28;20033;-56
2023/06/10 09:02:20;;;;;;;6.07;5.43;;;;;;;;;;5022866;28;20060;-57
2023/06/10 09:04:46;;;;;;;7.07;4.63;;;;;;;;;;5020241;28;20057;-53
2023/06/10 09:07:12;;;;;;;4.28;3.88;;;;;;;;;;5022883;28;20025;-54
2023/06/10 09:09:38;;;;;;;5.10;4.60;;;;;;;;;;5022735;28;20116;-53
2023/06/10 09:12:03;;;;;;;4.00;3.60;;;;;;;;;;5022475;28;20125;-53
2023/06/10 09:14:28;;;;;;;4.47;3.88;;;;;;;;;;5022579;28;20385;-53
2023/06/10 09:16:56;;;;;;;3.35;3.03;;;;;;;;;;5022796;28;20463;-58
2023/06/10 09:19:22;;;;;;;4.27;3.87;;;;;;;;;;5022518;28;20048;-58
2023/06/10 09:21:48;;;;;;;4.20;3.65;;;;;;;;;;5022372;28;20259;-59
2023/06/10 09:24:14;;;;;;;4.43;3.30;;;;;;;;;;5020896;28;20045;-53
2023/06/10 09:26:39;;;;;;;4.60;3.53;;;;;;;;;;5022713;28;20084;-49
2023/06/10 09:29:05;;;;;;;4.53;3.40;;;;;;;;;;5019924;28;20088;-55
2023/06/10 09:31:31;;;;;;;3.60;3.30;;;;;;;;;;5022112;28;20460;-55
2023/06/10 09:34:09;;;;;;;5.22;3.40;;;;;;;;;;5022215;28;20022;-54
2023/06/10 09:36:35;;;;;;;5.45;3.20;;;;;;;;;;5022348;28;20465;-57
2023/06/10 09:39:01;;;;;;;5.88;3.67;;;;;;;;;;5022009;28;20021;-54
2023/06/10 09:41:35;;;;;;;3.83;3.40;;;;;;;;;;5021771;28;20067;-55
2023/06/10 09:44:01;;;;;;;3.80;3.47;;;;;;;;;;5022145;28;20517;-57
2023/06/10 09:46:31;;;;;;;6.88;3.65;;;;;;;;;;5021895;28;20045;-53
2023/06/10 09:48:57;;;;;;;6.07;3.97;;;;;;;;;;5020844;28;20029;-54
2023/06/10 09:51:22;;;;;;;5.10;4.00;;;;;;;;;;5021794;28;20477;-53
2023/06/10 09:53:50;;;;;;;4.65;3.88;;;;;;;;;;5021628;28;20025;-58
2023/06/10 09:56:15;;;;;;;6.88;4.18;;;;;;;;;;5021794;28;20056;-57
2023/06/10 09:58:43;;;;;;;4.68;3.95;;;;;;;;;;5021481;28;20049;-52
2023/06/10 10:01:09;;;;;;;4.37;3.73;;;;;;;;;;5021935;28;20104;-57
2023/06/10 10:03:42;;;;;;;4.57;3.90;;;;;;;;;;5019133;28;20359;-54
2023/06/10 10:06:08;;;;;;;4.57;3.67;;;;;;;;;;5021267;28;20029;-55
2023/06/10 10:08:34;;;;;;;8.75;4.18;;;;;;;;;;5022059;28;20030;-57
2023/06/10 10:10:59;;;;;;;8.40;4.17;;;;;;;;;;5021763;28;20083;-55
2023/06/10 10:13:25;;;;;;;7.50;4.43;;;;;;;;;;5021546;28;20441;-54
2023/06/10 10:15:51;;;;;;;5.20;4.10;;;;;;;;;;5021551;28;20132;-55
2023/06/10 10:18:17;;;;;;;6.30;4.40;;;;;;;;;;5021753;28;20481;-50
2023/06/10 10:20:46;;;;;;;6.38;4.43;;;;;;;;;;5020402;28;20049;-57
2023/06/10 10:23:14;;;;;;;6.60;4.68;;;;;;;;;;5021108;28;20053;-53
2023/06/10 10:25:41;;;;;;;8.25;4.32;;;;;;;;;;5021607;28;20033;-49
2023/06/10 10:28:10;;;;;;;7.60;5.43;;;;;;;;;;5021292;28;20018;-53
2023/06/10 10:30:42;;;;;;;5.85;4.85;;;;;;;;;;5021211;28;20018;-53
2023/06/10 10:33:18;;;;;;;13.40;5.20;;;;;;;;;;5021552;28;20465;-53
2023/06/10 10:35:45;;;;;;;10.93;5.32;;;;;;;;;;5021714;28;20414;-52
2023/06/10 10:38:11;;;;;;;6.50;4.57;;;;;;;;;;5021319;28;20141;-55
2023/06/10 10:40:36;;;;;;;8.05;5.75;;;;;;;;;;5021575;28;20104;-54
2023/06/10 10:43:02;;;;;;;8.18;5.75;;;;;;;;;;5021430;28;20029;-56
2023/06/10 10:45:28;;;;;;;7.47;5.97;;;;;;;;;;5021163;28;20021;-48
2023/06/10 10:47:56;;;;;;;9.45;6.85;;;;;;;;;;5021151;28;20018;-52
2023/06/10 10:50:21;;;;;;;9.50;6.80;;;;;;;;;;5021029;28;20145;-51
2023/06/10 10:52:56;;;;;;;10.02;7.47;;;;;;;;;;5024864;28;20625;-56
2023/06/10 10:55:25;;;;;;;8.57;7.68;;;;;;;;;;5022114;28;20044;-55
2023/06/10 10:57:56;;;;;;;8.18;7.30;;;;;;;;;;5024397;28;20033;-51
2023/06/10 11:00:27;;;;;;;8.13;6.82;;;;;;;;;;5024791;28;20056;-53
2023/06/10 11:02:53;;;;;;;9.13;7.40;;;;;;;;;;5025017;28;20431;-51
2023/06/10 11:05:30;;;;;;;12.07;7.25;;;;;;;;;;5024563;28;20389;-56
2023/06/10 11:07:56;;;;;;;7.35;6.50;;;;;;;;;;5024219;28;20032;-48
2023/06/10 11:10:31;;;;;;;10.80;7.32;;;;;;;;;;5024854;28;20022;-53
2023/06/10 11:12:57;;;;;;;22.45;6.97;;;;;;;;;;5024420;28;20036;-52
2023/06/10 11:15:26;;;;;;;8.95;6.35;;;;;;;;;;5005026;28;20033;-55
2023/06/10 11:18:15;;;;;;;8.07;6.82;;;;;;;;;;5024279;28;20037;-56
2023/06/10 11:20:43;;;;;;;9.55;7.30;;;;;;;;;;5024281;28;20029;-53
2023/06/10 11:23:08;;;;;;;10.32;7.60;;;;;;;;;;5023874;28;20108;-54
2023/06/10 11:25:40;;;;;;;10.30;6.83;;;;;;;;;;5023857;28;20041;-57
2023/06/10 11:28:26;;;;;;;7.57;6.20;;;;;;;;;;5023815;28;20246;-53
2023/06/10 11:30:56;;;;;;;9.60;8.38;;;;;;;;;;5023509;28;20067;-49
2023/06/10 11:33:22;;;;;;;10.77;8.65;;;;;;;;;;5023964;28;20154;-57
2023/06/10 11:35:47;;;;;;;11.73;9.45;;;;;;;;;;5024016;28;20508;-53
2023/06/10 11:38:13;;;;;;;11.38;9.52;;;;;;;;;;5024253;28;20082;-57
2023/06/10 11:40:38;;;;;;;12.90;9.93;;;;;;;;;;5024125;28;20108;-50
2023/06/10 11:43:04;;;;;;;17.20;9.65;;;;;;;;;;5023767;28;20132;-54
2023/06/10 11:45:29;;;;;;;14.82;10.27;;;;;;;;;;5024070;28;20033;-57
2023/06/10 11:47:58;;;;;;;11.60;9.27;;;;;;;;;;5024004;28;20490;-49
2023/06/10 11:50:33;;;;;;;11.32;9.45;;;;;;;;;;5023870;28;20242;-54
2023/06/10 11:52:59;;;;;;;10.38;9.27;;;;;;;;;;5023886;28;20099;-53
2023/06/10 11:55:25;;;;;;;9.88;8.80;;;;;;;;;;5023345;28;20108;-49
2023/06/10 11:57:57;;;;;;;9.43;8.43;;;;;;;;;;5023339;28;20140;-56
2023/06/10 12:00:22;;;;;;;10.70;8.73;;;;;;;;;;5023452;28;20512;-57
2023/06/10 12:02:55;;;;;;;10.07;8.82;;;;;;;;;;5022931;28;20017;-53
2023/06/10 12:05:20;;;;;;;10.93;8.27;;;;;;;;;;5023478;28;20037;-52
2023/06/10 12:07:46;;;;;;;10.75;8.40;;;;;;;;;;5023390;28;20453;-54
2023/06/10 12:10:11;;;;;;;9.03;7.10;;;;;;;;;;5023376;28;20034;-58
2023/06/10 12:12:40;;;;;;;8.47;6.10;;;;;;;;;;5023230;28;20278;-55
2023/06/10 12:15:07;;;;;;;7.35;6.13;;;;;;;;;;5023363;28;20251;-54
2023/06/10 12:17:36;;;;;;;6.47;5.03;;;;;;;;;;5023249;28;20021;-57
2023/06/10 12:20:03;;;;;;;7.10;5.68;;;;;;;;;;5023083;28;20152;-55
2023/06/10 12:22:38;;;;;;;6.32;4.90;;;;;;;;;;5022932;28;20030;-58
2023/06/10 12:25:06;;;;;;;6.57;4.88;;;;;;;;;;5022785;28;20053;-57
2023/06/10 12:27:32;;;;;;;5.30;4.25;;;;;;;;;;5022971;28;20033;-58
2023/06/10 12:30:03;;;;;;;6.10;4.30;;;;;;;;;;5023155;28;20037;-56
2023/06/10 12:32:39;;;;;;;9.00;4.10;;;;;;;;;;5022771;28;20064;-53
2023/06/10 12:35:05;;;;;;;5.13;4.53;;;;;;;;;;5022515;28;20032;-54
2023/06/10 12:37:33;;;;;;;4.40;3.67;;;;;;;;;;5020133;28;20026;-55
2023/06/10 12:39:59;;;;;;;4.97;3.80;;;;;;;;;;5023188;28;20021;-55
2023/06/10 12:42:25;;;;;;;4.18;3.78;;;;;;;;;;5022491;28;20025;-56
2023/06/10 12:44:53;;;;;;;4.47;3.80;;;;;;;;;;5023033;28;20109;-54
2023/06/10 12:47:18;;;;;;;3.73;3.13;;;;;;;;;;5022805;28;20071;-52
2023/06/10 12:49:43;;;;;;;6.37;3.80;;;;;;;;;;5003673;28;20422;-57
2023/06/10 12:52:08;;;;;;;4.10;3.50;;;;;;;;;;5022962;28;20029;-51
2023/06/10 12:54:34;;;;;;;6.17;3.73;;;;;;;;;;5022631;28;20665;-56
2023/06/10 12:56:59;;;;;;;5.15;3.38;;;;;;;;;;5022300;28;20249;-52
2023/06/10 12:59:25;;;;;;;3.85;3.20;;;;;;;;;;5022408;28;20500;-52
2023/06/10 13:01:53;;;;;;;5.93;3.17;;;;;;;;;;5022367;28;20032;-51
2023/06/10 13:04:19;;;;;;;4.60;3.63;;;;;;;;;;5022146;28;20551;-54
2023/06/10 13:06:46;;;;;;;3.20;2.90;;;;;;;;;;5022231;28;20275;-53
2023/06/10 13:09:12;;;;;;;4.18;3.45;;;;;;;;;;5022404;28;20029;-55
2023/06/10 13:11:37;;;;;;;3.50;2.95;;;;;;;;;;5022008;28;20033;-54
2023/06/10 13:14:04;;;;;;;4.40;2.60;;;;;;;;;;5021586;28;20028;-54
2023/06/10 13:16:29;;;;;;;4.38;2.88;;;;;;;;;;5021712;28;20242;-52
2023/06/10 13:18:54;;;;;;;3.88;3.08;;;;;;;;;;5022138;28;20071;-54
2023/06/10 13:21:21;;;;;;;3.23;2.93;;;;;;;;;;5021854;28;20091;-54
2023/06/10 13:23:47;;;;;;;3.75;2.90;;;;;;;;;;5022029;28;20050;-52
2023/06/10 13:26:13;;;;;;;2.75;2.53;;;;;;;;;;5021789;28;20027;-54
2023/06/10 13:28:38;;;;;;;3.20;2.90;;;;;;;;;;5022036;28;20017;-52
2023/06/10 13:31:04;;;;;;;3.70;2.63;;;;;;;;;;5020450;28;20029;-56
2023/06/10 13:33:29;;;;;;;3.80;3.10;;;;;;;;;;5021709;28;20025;-51
2023/06/10 13:35:54;;;;;;;5.37;3.13;;;;;;;;;;5021902;28;20243;-53
2023/06/10 13:38:20;;;;;;;5.28;2.70;;;;;;;;;;5021341;28;20041;-56
2023/06/10 13:40:45;;;;;;;2.73;2.43;;;;;;;;;;5022130;28;20026;-57
2023/06/10 13:43:11;;;;;;;3.87;2.67;;;;;;;;;;5021765;28;20349;-54
2023/06/10 13:45:36;;;;;;;4.07;2.58;;;;;;;;;;5021737;28;20397;-51
2023/06/10 13:48:04;;;;;;;3.92;2.75;;;;;;;;;;5035414;28;20034;-50
2023/06/10 13:50:29;;;;;;;3.08;2.55;;;;;;;;;;5021512;28;20470;-58
2023/06/10 13:52:54;;;;;;;7.15;3.55;;;;;;;;;;5021353;28;20024;-52
2023/06/10 13:55:20;;;;;;;7.33;4.40;;;;;;;;;;5021315;28;20520;-52
2023/06/10 13:57:46;;;;;;;5.10;3.60;;;;;;;;;;5021043;28;20017;-53
2023/06/10 14:00:11;;;;;;;4.67;3.63;;;;;;;;;;5021141;28;20021;-58
2023/06/10 14:02:37;;;;;;;5.13;4.10;;;;;;;;;;5018921;28;20877;-53
2023/06/10 14:05:02;;;;;;;6.32;4.03;;;;;;;;;;5021695;28;20030;-50
2023/06/10 14:07:28;;;;;;;4.97;4.32;;;;;;;;;;5021289;28;20136;-49
2023/06/10 14:09:53;;;;;;;8.02;4.57;;;;;;;;;;5021078;28;20067;-54
2023/06/10 14:12:18;;;;;;;6.75;3.47;;;;;;;;;;5021638;28;20421;-55
2023/06/10 14:14:44;;;;;;;4.22;3.83;;;;;;;;;;5021368;28;20532;-52
2023/06/10 14:17:09;;;;;;;6.10;3.97;;;;;;;;;;5021583;28;20045;-57
2023/06/10 14:19:34;;;;;;;6.00;4.60;;;;;;;;;;5021140;28;20474;-50
2023/06/10 14:21:59;;;;;;;4.35;3.83;;;;;;;;;;5021293;28;20099;-49
2023/06/10 14:24:25;;;;;;;5.33;4.33;;;;;;;;;;5020954;28;20057;-56
2023/06/10 14:26:50;;;;;;;6.07;3.70;;;;;;;;;;5023876;28;20722;-50
2023/06/10 14:29:17;;;;;;;5.20;3.78;;;;;;;;;;5025097;28;20254;-52
2023/06/10 14:31:42;;;;;;;5.13;4.25;;;;;;;;;;5024699;28;20397;-58
2023/06/10 14:34:07;;;;;;;5.37;3.60;;;;;;;;;;5025005;28;20036;-51